Time,TemperatureF,DewpointF,PressureIn,WindDirection,WindDirectionDegrees,WindSpeedMPH,WindSpeedGustMPH,Humidity,HourlyPrecipIn,Conditions,Clouds,dailyrainin,SoftwareType,DateUTC
2013-01-10 00:09:00,37.4,29.0,30.34,WNW,286,2.0,-999.0,73,-99.99,,,0.00,weatherlink.com 1.10,2013-01-10 05:09:00,
2013-01-10 00:24:00,37.3,29.0,30.35,SW,229,2.0,-999.0,73,-99.99,,,0.00,weatherlink.com 1.10,2013-01-10 05:24:00,
2013-01-10 00:54:00,37.3,29.0,30.37,WSW,240,2.0,-999.0,72,-99.99,,,0.00,weatherlink.com 1.10,2013-01-10 05:54:00,
2013-01-10 01:09:00,37.3,29.0,30.37,West,276,1.0,-999.0,72,-99.99,,,0.00,weatherlink.com 1.10,2013-01-10 06:09:00,
2013-01-10 01:24:00,37.3,29.0,30.38,WSW,250,1.0,-999.0,73,-99.99,,,0.00,weatherlink.com 1.10,2013-01-10 06:24:00,
2013-01-10 01:39:00,37.1,30.0,30.39,WSW,253,2.0,-999.0,74,-99.99,,,0.00,weatherlink.com 1.10,2013-01-10 06:39:00,
2013-01-10 01:54:00,37.0,29.0,30.40,West,264,0.0,-999.0,74,-99.99,,,0.00,weatherlink.com 1.10,2013-01-10 06:54:00,
2013-01-10 02:09:00,36.6,29.0,30.40,SW,226,3.0,-999.0,75,-99.99,,,0.00,weatherlink.com 1.10,2013-01-10 07:09:00,
2013-01-10 02:24:00,36.4,30.0,30.40,WSW,253,0.0,-999.0,76,-99.99,,,0.00,weatherlink.com 1.10,2013-01-10 07:24:00,
2013-01-10 02:39:00,36.1,30.0,30.40,WNW,301,2.0,-999.0,77,-99.99,,,0.00,weatherlink.com 1.10,2013-01-10 07:39:00,
2013-01-10 02:54:00,35.9,29.0,30.41,WNW,302,0.0,-999.0,76,-99.99,,,0.00,weatherlink.com 1.10,2013-01-10 07:54:00,
2013-01-10 03:09:00,35.6,29.0,30.41,NW,322,0.0,-999.0,76,-99.99,,,0.00,weatherlink.com 1.10,2013-01-10 08:09:00,
2013-01-10 03:24:00,35.1,28.0,30.43,WSW,242,0.0,-999.0,76,-99.99,,,0.00,weatherlink.com 1.10,2013-01-10 08:24:00,
2013-01-10 03:39:00,34.4,28.0,30.43,SW,221,0.0,-999.0,76,-99.99,,,0.00,weatherlink.com 1.10,2013-01-10 08:39:00,
2013-01-10 03:54:00,34.4,27.0,30.43,WSW,251,2.0,-999.0,75,-99.99,,,0.00,weatherlink.com 1.10,2013-01-10 08:54:00,
2013-01-10 04:09:00,34.4,27.0,30.44,WSW,253,1.0,-999.0,75,-99.99,,,0.00,weatherlink.com 1.10,2013-01-10 09:09:00,
2013-01-10 04:24:00,34.4,27.0,30.45,WSW,254,0.0,-999.0,75,-99.99,,,0.00,weatherlink.com 1.10,2013-01-10 09:24:00,
2013-01-10 04:39:00,34.4,27.0,30.46,WSW,248,3.0,-999.0,75,-99.99,,,0.00,weatherlink.com 1.10,2013-01-10 09:39:00,
2013-01-10 04:54:00,34.5,28.0,30.47,WSW,245,3.0,-999.0,76,-99.99,,,0.00,weatherlink.com 1.10,2013-01-10 09:54:00,
2013-01-10 05:09:00,34.4,28.0,30.47,WSW,254,0.0,-999.0,78,-99.99,,,0.00,weatherlink.com 1.10,2013-01-10 10:09:00,
2013-01-10 05:24:00,34.4,29.0,30.48,WSW,249,2.0,-999.0,79,-99.99,,,0.00,weatherlink.com 1.10,2013-01-10 10:24:00,
2013-01-10 05:39:00,34.4,29.0,30.48,WSW,246,2.0,-999.0,79,-99.99,,,0.00,weatherlink.com 1.10,2013-01-10 10:39:00,
2013-01-10 05:54:00,34.4,29.0,30.48,WSW,244,1.0,-999.0,79,-99.99,,,0.00,weatherlink.com 1.10,2013-01-10 10:54:00,
2013-01-10 06:09:00,34.4,29.0,30.50,SW,222,2.0,-999.0,79,-99.99,,,0.00,weatherlink.com 1.10,2013-01-10 11:09:00,
2013-01-10 06:24:00,34.5,29.0,30.50,SW,236,1.0,-999.0,79,-99.99,,,0.00,weatherlink.com 1.10,2013-01-10 11:24:00,
2013-01-10 06:39:00,34.5,29.0,30.51,WSW,252,0.0,-999.0,79,-99.99,,,0.00,weatherlink.com 1.10,2013-01-10 11:39:00,
2013-01-10 06:54:00,34.5,29.0,30.51,West,259,0.0,-999.0,79,-99.99,,,0.00,weatherlink.com 1.10,2013-01-10 11:54:00,
2013-01-10 07:09:00,34.4,29.0,30.52,West,260,1.0,-999.0,79,-99.99,,,0.00,weatherlink.com 1.10,2013-01-10 12:09:00,
2013-01-10 07:24:00,34.4,29.0,30.53,SW,219,0.0,-999.0,79,-99.99,,,0.00,weatherlink.com 1.10,2013-01-10 12:24:00,
2013-01-10 07:39:00,34.4,29.0,30.54,West,269,3.0,-999.0,80,-99.99,,,0.00,weatherlink.com 1.10,2013-01-10 12:39:00,
2013-01-10 07:54:00,34.4,29.0,30.55,WSW,252,3.0,-999.0,79,-99.99,,,0.00,weatherlink.com 1.10,2013-01-10 12:54:00,
2013-01-10 08:09:00,34.4,29.0,30.56,WSW,241,0.0,-999.0,79,-99.99,,,0.00,weatherlink.com 1.10,2013-01-10 13:09:00,
2013-01-10 08:24:00,34.4,29.0,30.57,West,260,1.0,-999.0,79,-99.99,,,0.00,weatherlink.com 1.10,2013-01-10 13:24:00,
2013-01-10 08:39:00,34.4,29.0,30.58,SW,227,0.0,-999.0,79,-99.99,,,0.00,weatherlink.com 1.10,2013-01-10 13:39:00,
2013-01-10 08:54:00,34.4,29.0,30.59,WSW,238,1.0,-999.0,79,-99.99,,,0.00,weatherlink.com 1.10,2013-01-10 13:54:00,
2013-01-10 09:09:00,34.8,29.0,30.60,WSW,242,1.0,-999.0,78,-99.99,,,0.00,weatherlink.com 1.10,2013-01-10 14:09:00,
2013-01-10 09:24:00,35.1,29.0,30.60,WSW,244,2.0,-999.0,78,-99.99,,,0.00,weatherlink.com 1.10,2013-01-10 14:24:00,
2013-01-10 09:39:00,35.5,29.0,30.59,West,259,2.0,-999.0,77,-99.99,,,0.00,weatherlink.com 1.10,2013-01-10 14:39:00,
2013-01-10 09:54:00,36.1,29.0,30.59,SW,217,4.0,-999.0,75,-99.99,,,0.00,weatherlink.com 1.10,2013-01-10 14:54:00,
2013-01-10 10:09:00,36.9,30.0,30.60,WSW,249,1.0,-999.0,75,-99.99,,,0.00,weatherlink.com 1.10,2013-01-10 15:09:00,
2013-01-10 10:24:00,37.6,29.0,30.60,West,275,0.0,-999.0,72,-99.99,,,0.00,weatherlink.com 1.10,2013-01-10 15:24:00,
2013-01-10 10:39:00,38.2,29.0,30.59,West,267,3.0,-999.0,70,-99.99,,,0.00,weatherlink.com 1.10,2013-01-10 15:39:00,
2013-01-10 10:54:00,38.6,29.0,30.59,West,270,2.0,-999.0,69,-99.99,,,0.00,weatherlink.com 1.10,2013-01-10 15:54:00,
2013-01-10 11:09:00,38.9,29.0,30.57,WSW,237,2.0,-999.0,68,-99.99,,,0.00,weatherlink.com 1.10,2013-01-10 16:09:00,
2013-01-10 11:24:00,39.3,29.0,30.57,SW,222,0.0,-999.0,66,-99.99,,,0.00,weatherlink.com 1.10,2013-01-10 16:24:00,
2013-01-10 11:39:00,39.6,29.0,30.56,WSW,256,0.0,-999.0,66,-99.99,,,0.00,weatherlink.com 1.10,2013-01-10 16:39:00,
2013-01-10 11:54:00,39.8,29.0,30.56,West,261,0.0,-999.0,66,-99.99,,,0.00,weatherlink.com 1.10,2013-01-10 16:54:00,
2013-01-10 12:09:00,40.1,29.0,30.55,WSW,254,0.0,-999.0,64,-99.99,,,0.00,weatherlink.com 1.10,2013-01-10 17:09:00,
2013-01-10 12:24:00,40.6,29.0,30.55,SW,227,4.0,-999.0,63,-99.99,,,0.00,weatherlink.com 1.10,2013-01-10 17:24:00,
2013-01-10 12:39:00,41.1,29.0,30.55,West,259,1.0,-999.0,62,-99.99,,,0.00,weatherlink.com 1.10,2013-01-10 17:39:00,
2013-01-10 12:54:00,41.3,29.0,30.54,SW,225,4.0,-999.0,61,-99.99,,,0.00,weatherlink.com 1.10,2013-01-10 17:54:00,
2013-01-10 13:09:00,41.7,29.0,30.54,WSW,246,2.0,-999.0,61,-99.99,,,0.00,weatherlink.com 1.10,2013-01-10 18:09:00,
2013-01-10 13:24:00,41.5,29.0,30.53,NW,325,0.0,-999.0,61,-99.99,,,0.00,weatherlink.com 1.10,2013-01-10 18:24:00,
2013-01-10 13:39:00,41.5,29.0,30.54,WNW,288,0.0,-999.0,62,-99.99,,,0.00,weatherlink.com 1.10,2013-01-10 18:39:00,
2013-01-10 13:54:00,41.8,29.0,30.53,WSW,241,0.0,-999.0,61,-99.99,,,0.00,weatherlink.com 1.10,2013-01-10 18:54:00,
2013-01-10 14:09:00,41.6,28.0,30.54,West,272,0.0,-999.0,60,-99.99,,,0.00,weatherlink.com 1.10,2013-01-10 19:09:00,
2013-01-10 14:24:00,41.9,29.0,30.54,WSW,243,0.0,-999.0,61,-99.99,,,0.00,weatherlink.com 1.10,2013-01-10 19:24:00,
2013-01-10 14:40:00,41.8,29.0,30.54,WSW,255,0.0,-999.0,61,-99.99,,,0.00,weatherlink.com 1.10,2013-01-10 19:40:00,
2013-01-10 14:55:00,41.4,29.0,30.54,WSW,248,1.0,-999.0,61,-99.99,,,0.00,weatherlink.com 1.10,2013-01-10 19:55:00,
2013-01-10 15:10:00,41.2,29.0,30.54,WSW,253,0.0,-999.0,61,-99.99,,,0.00,weatherlink.com 1.10,2013-01-10 20:10:00,
2013-01-10 15:25:00,41.1,28.0,30.55,SW,230,0.0,-999.0,61,-99.99,,,0.00,weatherlink.com 1.10,2013-01-10 20:25:00,
2013-01-10 15:55:00,40.2,29.0,30.53,SW,230,0.0,-999.0,64,-99.99,,,0.00,weatherlink.com 1.10,2013-01-10 20:55:00,
2013-01-10 16:10:00,40.1,28.0,30.53,SW,231,0.0,-999.0,63,-99.99,,,0.00,weatherlink.com 1.10,2013-01-10 21:10:00,
2013-01-10 16:25:00,39.6,28.0,30.54,SW,230,0.0,-999.0,64,-99.99,,,0.00,weatherlink.com 1.10,2013-01-10 21:25:00,
2013-01-10 16:40:00,38.9,28.0,30.52,SW,231,0.0,-999.0,64,-99.99,,,0.00,weatherlink.com 1.10,2013-01-10 21:40:00,
2013-01-10 16:55:00,38.3,28.0,30.52,SW,230,0.0,-999.0,66,-99.99,,,0.00,weatherlink.com 1.10,2013-01-10 21:55:00,
2013-01-10 17:10:00,37.4,28.0,30.52,SW,231,0.0,-999.0,68,-99.99,,,0.00,weatherlink.com 1.10,2013-01-10 22:10:00,
2013-01-10 17:25:00,36.7,27.0,30.53,SW,230,0.0,-999.0,69,-99.99,,,0.00,weatherlink.com 1.10,2013-01-10 22:25:00,
2013-01-10 17:40:00,36.4,27.0,30.53,SW,230,0.0,-999.0,70,-99.99,,,0.00,weatherlink.com 1.10,2013-01-10 22:40:00,
2013-01-10 17:55:00,35.6,27.0,30.53,SW,230,0.0,-999.0,71,-99.99,,,0.00,weatherlink.com 1.10,2013-01-10 22:55:00,
2013-01-10 18:10:00,35.0,27.0,30.53,SW,230,0.0,-999.0,72,-99.99,,,0.00,weatherlink.com 1.10,2013-01-10 23:10:00,
2013-01-10 18:25:00,34.4,27.0,30.53,SW,230,0.0,-999.0,74,-99.99,,,0.00,weatherlink.com 1.10,2013-01-10 23:25:00,
2013-01-10 18:40:00,33.9,27.0,30.53,SW,230,0.0,-999.0,76,-99.99,,,0.00,weatherlink.com 1.10,2013-01-10 23:40:00,
2013-01-10 18:55:00,33.5,27.0,30.53,SW,230,0.0,-999.0,77,-99.99,,,0.00,weatherlink.com 1.10,2013-01-10 23:55:00,
2013-01-10 19:10:00,33.3,27.0,30.52,SW,230,0.0,-999.0,77,-99.99,,,0.00,weatherlink.com 1.10,2013-01-11 00:10:00,
2013-01-10 19:25:00,33.2,27.0,30.52,SW,230,0.0,-999.0,77,-99.99,,,0.00,weatherlink.com 1.10,2013-01-11 00:25:00,
2013-01-10 19:40:00,33.2,27.0,30.52,South,173,1.0,-999.0,78,-99.99,,,0.00,weatherlink.com 1.10,2013-01-11 00:40:00,
2013-01-10 19:55:00,33.0,27.0,30.51,South,174,0.0,-999.0,79,-99.99,,,0.00,weatherlink.com 1.10,2013-01-11 00:55:00,
2013-01-10 20:10:00,33.1,27.0,30.52,East,96,0.0,-999.0,79,-99.99,,,0.00,weatherlink.com 1.10,2013-01-11 01:10:00,
2013-01-10 20:25:00,33.1,28.0,30.51,East,96,0.0,-999.0,80,-99.99,,,0.00,weatherlink.com 1.10,2013-01-11 01:25:00,
2013-01-10 20:40:00,33.1,28.0,30.51,East,96,0.0,-999.0,81,-99.99,,,0.00,weatherlink.com 1.10,2013-01-11 01:40:00,
2013-01-10 20:55:00,33.0,28.0,30.51,ESE,102,0.0,-999.0,83,-99.99,,,0.00,weatherlink.com 1.10,2013-01-11 01:55:00,
2013-01-10 21:10:00,32.8,28.0,30.51,East,86,1.0,-999.0,83,-99.99,,,0.00,weatherlink.com 1.10,2013-01-11 02:10:00,
2013-01-10 21:25:00,32.5,28.0,30.50,East,86,0.0,-999.0,84,-99.99,,,0.00,weatherlink.com 1.10,2013-01-11 02:25:00,
2013-01-10 21:55:00,31.9,28.0,30.49,East,86,1.0,-999.0,85,-99.99,,,0.00,weatherlink.com 1.10,2013-01-11 02:55:00,
2013-01-10 22:10:00,31.9,28.0,30.48,East,87,1.0,-999.0,85,-99.99,,,0.00,weatherlink.com 1.10,2013-01-11 03:10:00,
2013-01-10 22:25:00,31.6,28.0,30.47,East,98,0.0,-999.0,85,-99.99,,,0.00,weatherlink.com 1.10,2013-01-11 03:25:00,
2013-01-10 22:40:00,31.3,27.0,30.47,East,99,1.0,-999.0,85,-99.99,,,0.00,weatherlink.com 1.10,2013-01-11 03:40:00,
2013-01-10 22:55:00,31.1,27.0,30.45,East,94,1.0,-999.0,85,-99.99,,,0.00,weatherlink.com 1.10,2013-01-11 03:55:00,
2013-01-10 23:10:00,31.1,27.0,30.45,East,92,2.0,-999.0,85,-99.99,,,0.00,weatherlink.com 1.10,2013-01-11 04:10:00,
2013-01-10 23:25:00,31.0,27.0,30.43,ESE,103,1.0,-999.0,85,-99.99,,,0.00,weatherlink.com 1.10,2013-01-11 04:25:00,
2013-01-10 23:40:00,31.1,27.0,30.44,East,99,2.0,-999.0,85,-99.99,,,0.00,weatherlink.com 1.10,2013-01-11 04:40:00,
2013-01-10 23:55:00,31.2,27.0,30.42,ESE,105,2.0,-999.0,85,-99.99,,,0.00,weatherlink.com 1.10,2013-01-11 04:55:00,